Time;durP1;ratioP1;P1;durP2;ratioP2;P2;SDS_P1;SDS_P2;PMS_P1;PMS_P2;Temp;Humidity;BMP_temperature;BMP_pressure;BME280_temperature;BME280_humidity;BME280_pressure;Samples;Min_cycle;Max_cycle;Signal;HPM_P1;HPM_P2
2022/12/23 00:00:07;;;;;;;94.25;29.83;;;;;;;;;;1035452;28;20026;-75
2022/12/23 00:00:38;;;;;;;76.35;31.35;;;;;;;;;;1038452;28;20021;-75
2022/12/23 00:01:11;;;;;;;89.50;31.35;;;;;;;;;;1039456;28;20111;-74
2022/12/23 00:01:42;;;;;;;81.20;29.63;;;;;;;;;;1036086;28;20140;-75
2022/12/23 00:02:12;;;;;;;85.72;33.85;;;;;;;;;;1035890;28;20057;-75
2022/12/23 00:02:43;;;;;;;83.38;30.00;;;;;;;;;;1033953;28;20021;-75
2022/12/23 00:03:14;;;;;;;88.32;33.00;;;;;;;;;;1035908;28;20140;-74
2022/12/23 00:03:44;;;;;;;82.72;33.28;;;;;;;;;;1036052;28;20060;-74
2022/12/23 00:04:15;;;;;;;90.15;34.00;;;;;;;;;;1033303;28;20018;-74
2022/12/23 00:04:45;;;;;;;86.43;35.75;;;;;;;;;;1035645;28;20481;-75
2022/12/23 00:05:16;;;;;;;85.45;33.30;;;;;;;;;;1035584;28;20493;-75
2022/12/23 00:05:46;;;;;;;86.50;33.30;;;;;;;;;;1035731;28;20417;-75
2022/12/23 00:06:18;;;;;;;93.10;31.88;;;;;;;;;;1031351;28;20451;-75
2022/12/23 00:06:49;;;;;;;73.70;31.80;;;;;;;;;;1031940;28;20026;-75
2022/12/23 00:07:19;;;;;;;91.78;33.13;;;;;;;;;;1035735;28;20422;-75
2022/12/23 00:07:50;;;;;;;73.40;30.17;;;;;;;;;;1035667;28;20520;-75
2022/12/23 00:08:21;;;;;;;93.25;32.08;;;;;;;;;;1035847;28;20061;-75
2022/12/23 00:08:56;;;;;;;95.30;33.22;;;;;;;;;;1036046;28;20041;-75
2022/12/23 00:09:27;;;;;;;87.07;29.92;;;;;;;;;;1034314;28;20508;-74
2022/12/23 00:09:57;;;;;;;98.57;34.50;;;;;;;;;;1035767;28;20028;-75
2022/12/23 00:10:28;;;;;;;83.03;32.65;;;;;;;;;;1035425;28;20060;-75
2022/12/23 00:10:59;;;;;;;91.57;33.70;;;;;;;;;;1031469;28;20065;-74
2022/12/23 00:11:29;;;;;;;92.95;35.25;;;;;;;;;;1035168;28;20421;-74
2022/12/23 00:15:17;;;;;;;72.57;27.33;;;;;;;;;;1029648;28;20438;-75
2022/12/23 00:15:48;;;;;;;75.47;31.33;;;;;;;;;;1035950;28;20022;-75
2022/12/23 00:16:18;;;;;;;84.60;32.67;;;;;;;;;;1035424;28;20022;-75
2022/12/23 00:16:49;;;;;;;77.15;31.13;;;;;;;;;;1035698;28;20473;-75
2022/12/23 00:17:19;;;;;;;79.03;31.30;;;;;;;;;;1035609;28;20457;-75
2022/12/23 00:17:50;;;;;;;84.82;30.23;;;;;;;;;;1035602;28;20010;-75
2022/12/23 00:18:20;;;;;;;92.68;33.78;;;;;;;;;;1031379;28;20045;-75
2022/12/23 00:18:52;;;;;;;83.43;33.67;;;;;;;;;;1031616;28;20022;-74
2022/12/23 00:19:22;;;;;;;88.10;32.42;;;;;;;;;;1031895;28;20014;-74
2022/12/23 00:19:53;;;;;;;83.95;34.20;;;;;;;;;;1031602;28;20014;-75
2022/12/23 00:20:23;;;;;;;99.28;34.30;;;;;;;;;;1035504;28;20030;-75
2022/12/23 00:21:00;;;;;;;79.45;30.10;;;;;;;;;;1035731;28;20437;-75
2022/12/23 00:21:31;;;;;;;89.50;31.60;;;;;;;;;;1034970;28;20030;-74
2022/12/23 00:22:02;;;;;;;88.05;32.65;;;;;;;;;;1033698;28;20450;-75
2022/12/23 00:23:21;;;;;;;82.63;31.25;;;;;;;;;;1035891;28;20525;-75
2022/12/23 00:23:51;;;;;;;89.57;36.10;;;;;;;;;;1035975;28;20038;-75
2022/12/23 00:24:22;;;;;;;77.15;28.95;;;;;;;;;;1035813;28;20037;-74
2022/12/23 00:24:52;;;;;;;76.30;29.60;;;;;;;;;;1035836;28;20034;-75
2022/12/23 00:25:39;;;;;;;78.57;27.88;;;;;;;;;;1035356;28;20403;-75
2022/12/23 00:26:27;;;;;;;74.57;30.05;;;;;;;;;;1035573;28;20484;-74
2022/12/23 00:26:57;;;;;;;84.95;32.55;;;;;;;;;;1035330;28;20022;-75
2022/12/23 00:27:28;;;;;;;75.15;29.55;;;;;;;;;;1035568;28;20026;-75
2022/12/23 00:28:01;;;;;;;65.97;28.80;;;;;;;;;;1035608;28;20025;-75
2022/12/23 00:28:32;;;;;;;85.90;32.50;;;;;;;;;;1033841;28;20029;-74
2022/12/23 00:29:02;;;;;;;78.50;31.60;;;;;;;;;;1035572;28;20026;-75
2022/12/23 00:29:33;;;;;;;79.20;31.30;;;;;;;;;;1035846;28;20025;-75
2022/12/23 00:30:04;;;;;;;72.22;29.08;;;;;;;;;;1035764;28;20367;-75
2022/12/23 00:30:34;;;;;;;74.60;31.98;;;;;;;;;;1035484;28;20029;-75
2022/12/23 00:31:06;;;;;;;83.75;32.58;;;;;;;;;;1035567;28;20493;-75
2022/12/23 00:31:36;;;;;;;73.57;29.38;;;;;;;;;;1035742;28;20057;-75
2022/12/23 00:32:07;;;;;;;93.65;31.45;;;;;;;;;;1035364;28;20010;-75
2022/12/23 00:32:37;;;;;;;82.30;33.08;;;;;;;;;;1035518;28;20041;-75
2022/12/23 00:33:08;;;;;;;75.10;31.33;;;;;;;;;;1035312;28;20087;-75
2022/12/23 00:33:43;;;;;;;80.45;31.63;;;;;;;;;;1035698;28;20059;-75
2022/12/23 00:34:13;;;;;;;74.55;31.33;;;;;;;;;;1029461;28;20426;-74
2022/12/23 00:34:44;;;;;;;58.97;26.88;;;;;;;;;;1032268;28;20030;-74
2022/12/23 00:35:14;;;;;;;74.72;30.67;;;;;;;;;;1035597;28;20049;-74
2022/12/23 00:35:45;;;;;;;98.80;32.40;;;;;;;;;;1035623;28;20116;-74
2022/12/23 00:36:26;;;;;;;60.67;29.92;;;;;;;;;;1035752;28;20036;-74
2022/12/23 00:36:57;;;;;;;90.22;33.47;;;;;;;;;;1035052;28;20025;-74
2022/12/23 00:37:29;;;;;;;81.85;30.83;;;;;;;;;;1031383;28;20097;-75
2022/12/23 00:37:59;;;;;;;75.70;29.48;;;;;;;;;;1031536;28;20034;-75
2022/12/23 00:42:53;;;;;;;81.22;30.02;;;;;;;;;;1035137;28;20124;-75
2022/12/23 00:43:24;;;;;;;87.68;28.70;;;;;;;;;;1035087;28;20017;-75
2022/12/23 00:43:54;;;;;;;73.65;26.38;;;;;;;;;;1035856;28;20060;-74
2022/12/23 00:44:25;;;;;;;81.32;30.98;;;;;;;;;;1035681;28;20076;-74
2022/12/23 00:45:14;;;;;;;72.68;29.33;;;;;;;;;;1036036;28;20028;-74
2022/12/23 00:45:44;;;;;;;68.50;26.45;;;;;;;;;;1033986;28;20394;-74
2022/12/23 00:46:15;;;;;;;81.32;33.53;;;;;;;;;;1035733;28;20049;-75
2022/12/23 00:46:46;;;;;;;71.15;29.65;;;;;;;;;;1035824;28;20040;-75
2022/12/23 00:49:43;;;;;;;76.65;30.15;;;;;;;;;;1034991;28;20102;-75
2022/12/23 00:50:14;;;;;;;85.32;33.75;;;;;;;;;;1034972;28;20376;-75
2022/12/23 00:50:45;;;;;;;87.65;32.45;;;;;;;;;;1035314;28;20123;-75
2022/12/23 00:51:15;;;;;;;84.57;30.52;;;;;;;;;;1035368;28;20121;-75
2022/12/23 00:51:46;;;;;;;80.63;30.77;;;;;;;;;;1031302;28;20024;-75
2022/12/23 00:52:16;;;;;;;81.57;32.28;;;;;;;;;;1031293;28;20026;-75
2022/12/23 00:52:47;;;;;;;80.53;31.08;;;;;;;;;;1027250;28;20505;-75
2022/12/23 00:53:18;;;;;;;77.55;33.05;;;;;;;;;;1031284;28;20480;-74
2022/12/23 00:53:48;;;;;;;77.57;30.42;;;;;;;;;;1035410;28;20417;-75
2022/12/23 00:54:19;;;;;;;75.53;29.58;;;;;;;;;;1031309;28;20023;-75
2022/12/23 00:54:49;;;;;;;88.82;33.80;;;;;;;;;;1035593;28;20025;-75
2022/12/23 00:55:20;;;;;;;84.30;32.78;;;;;;;;;;1036069;28;20089;-74
2022/12/23 00:55:50;;;;;;;75.93;32.15;;;;;;;;;;1035754;28;20029;-75
2022/12/23 00:56:21;;;;;;;78.05;32.25;;;;;;;;;;1035538;28;20022;-75
2022/12/23 00:56:52;;;;;;;81.43;30.63;;;;;;;;;;1035681;28;20425;-75
2022/12/23 00:57:22;;;;;;;91.65;31.15;;;;;;;;;;1036805;28;20555;-75
2022/12/23 00:57:53;;;;;;;94.32;35.20;;;;;;;;;;1036618;28;20022;-75
2022/12/23 00:58:24;;;;;;;92.05;33.53;;;;;;;;;;1037002;28;20559;-75
2022/12/23 00:58:55;;;;;;;73.97;30.38;;;;;;;;;;1037058;28;20021;-75
2022/12/23 00:59:26;;;;;;;85.70;35.28;;;;;;;;;;1038132;28;20025;-75
2022/12/23 00:59:56;;;;;;;80.93;29.90;;;;;;;;;;1038557;28;20025;-75
2022/12/23 01:05:36;;;;;;;73.60;31.48;;;;;;;;;;1035560;28;20021;-75
2022/12/23 01:06:06;;;;;;;76.65;30.77;;;;;;;;;;1035565;28;20065;-75
2022/12/23 01:06:37;;;;;;;83.88;33.60;;;;;;;;;;1035603;28;20512;-76
2022/12/23 01:07:10;;;;;;;114.22;43.58;;;;;;;;;;1035101;28;20037;-75
2022/12/23 01:07:41;;;;;;;119.35;51.85;;;;;;;;;;1035457;28;20073;-75
2022/12/23 01:08:11;;;;;;;132.05;52.92;;;;;;;;;;1035212;28;20918;-75
2022/12/23 01:08:42;;;;;;;118.22;49.95;;;;;;;;;;1035077;28;20488;-75
2022/12/23 01:09:13;;;;;;;97.10;40.45;;;;;;;;;;1035178;28;20030;-75
2022/12/23 01:09:43;;;;;;;101.60;39.30;;;;;;;;;;1035087;28;20033;-75
2022/12/23 01:10:14;;;;;;;105.43;40.42;;;;;;;;;;1031246;28;20026;-75
2022/12/23 01:10:45;;;;;;;112.93;45.53;;;;;;;;;;1035259;28;20053;-75
2022/12/23 01:11:15;;;;;;;111.43;46.90;;;;;;;;;;1030922;28;20030;-75
2022/12/23 01:11:46;;;;;;;115.53;47.53;;;;;;;;;;1031248;28;20054;-75
2022/12/23 01:12:16;;;;;;;128.70;53.10;;;;;;;;;;1034829;28;20022;-75
2022/12/23 01:12:47;;;;;;;149.75;55.25;;;;;;;;;;1034295;28;20449;-75
2022/12/23 01:13:18;;;;;;;138.93;53.25;;;;;;;;;;1034740;28;20036;-76
2022/12/23 01:13:48;;;;;;;136.23;55.13;;;;;;;;;;1035013;28;20117;-76
2022/12/23 01:14:19;;;;;;;169.60;59.60;;;;;;;;;;1035056;28;20033;-76
2022/12/23 01:14:50;;;;;;;155.10;54.22;;;;;;;;;;1035039;28;20378;-76
2022/12/23 01:15:20;;;;;;;148.88;55.05;;;;;;;;;;1035218;28;20030;-76
2022/12/23 01:15:51;;;;;;;108.00;44.58;;;;;;;;;;1030966;28;20116;-76
2022/12/23 01:16:21;;;;;;;99.95;37.13;;;;;;;;;;1031056;28;20863;-76
2022/12/23 01:16:52;;;;;;;96.03;36.33;;;;;;;;;;1031180;28;20015;-76
2022/12/23 01:17:23;;;;;;;87.47;33.50;;;;;;;;;;1035110;28;20021;-76
2022/12/23 01:17:53;;;;;;;93.45;36.58;;;;;;;;;;1035249;28;20026;-76
2022/12/23 01:18:24;;;;;;;89.10;36.75;;;;;;;;;;1035228;28;20037;-76
2022/12/23 01:18:54;;;;;;;99.20;37.63;;;;;;;;;;1033714;28;20040;-76
2022/12/23 01:19:25;;;;;;;97.78;38.38;;;;;;;;;;1034106;28;20466;-76
2022/12/23 01:19:55;;;;;;;90.70;35.88;;;;;;;;;;1030605;28;20529;-76
2022/12/23 01:20:26;;;;;;;93.53;34.70;;;;;;;;;;1030500;28;20371;-77
2022/12/23 01:21:00;;;;;;;94.82;36.70;;;;;;;;;;1029887;28;20121;-76
2022/12/23 01:21:31;;;;;;;78.78;31.85;;;;;;;;;;1034073;28;20068;-76
2022/12/23 01:22:01;;;;;;;70.10;31.23;;;;;;;;;;1031859;28;20077;-76
2022/12/23 01:22:32;;;;;;;79.53;33.03;;;;;;;;;;1035174;28;20022;-76
2022/12/23 01:23:03;;;;;;;83.70;34.05;;;;;;;;;;1033271;28;20021;-76
2022/12/23 01:23:33;;;;;;;75.43;31.48;;;;;;;;;;1035100;28;20677;-76
2022/12/23 01:24:04;;;;;;;75.30;31.30;;;;;;;;;;1033896;28;20553;-76
2022/12/23 01:24:35;;;;;;;86.68;31.80;;;;;;;;;;1034061;28;20026;-76
2022/12/23 01:25:05;;;;;;;77.65;30.67;;;;;;;;;;1034813;28;20061;-76
2022/12/23 01:25:36;;;;;;;78.10;31.27;;;;;;;;;;1030846;28;20030;-76
2022/12/23 01:26:07;;;;;;;99.30;34.17;;;;;;;;;;1030641;28;20184;-76
2022/12/23 01:26:37;;;;;;;77.93;33.60;;;;;;;;;;1035095;28;20029;-76
2022/12/23 01:27:08;;;;;;;75.40;32.22;;;;;;;;;;1034180;28;20025;-76
2022/12/23 01:27:38;;;;;;;79.97;30.40;;;;;;;;;;1034729;28;20410;-76
2022/12/23 01:28:09;;;;;;;75.45;29.75;;;;;;;;;;1034711;28;20017;-77
2022/12/23 01:28:40;;;;;;;72.10;28.80;;;;;;;;;;1034773;28;20033;-76
2022/12/23 01:29:10;;;;;;;71.03;31.42;;;;;;;;;;1031062;28;20085;-76
2022/12/23 01:29:41;;;;;;;90.75;36.60;;;;;;;;;;1030868;28;20037;-76
2022/12/23 01:30:12;;;;;;;105.45;36.25;;;;;;;;;;1030828;28;20121;-77
2022/12/23 01:30:42;;;;;;;95.55;35.97;;;;;;;;;;1031103;28;20034;-76
2022/12/23 01:31:13;;;;;;;89.05;35.83;;;;;;;;;;1026944;28;20553;-76
2022/12/23 01:31:44;;;;;;;77.35;33.90;;;;;;;;;;1024611;28;20037;-76
2022/12/23 01:32:15;;;;;;;95.68;35.97;;;;;;;;;;1026060;28;20075;-76
2022/12/23 01:32:45;;;;;;;86.78;34.10;;;;;;;;;;1026720;28;20026;-77
2022/12/23 01:33:16;;;;;;;78.72;31.17;;;;;;;;;;1026569;28;20414;-76
2022/12/23 01:33:47;;;;;;;91.07;35.58;;;;;;;;;;1032842;28;20044;-77
2022/12/23 01:34:18;;;;;;;84.00;34.40;;;;;;;;;;1026122;28;20431;-77
2022/12/23 01:34:49;;;;;;;79.43;33.63;;;;;;;;;;1029599;28;20027;-76
2022/12/23 01:35:19;;;;;;;95.30;36.28;;;;;;;;;;1027699;28;20469;-76
2022/12/23 01:35:50;;;;;;;87.70;30.13;;;;;;;;;;1028913;28;20026;-75
2022/12/23 01:36:21;;;;;;;86.78;33.83;;;;;;;;;;1036680;28;20068;-77
2022/12/23 01:36:52;;;;;;;77.78;32.97;;;;;;;;;;1032719;28;20050;-75
2022/12/23 01:37:22;;;;;;;88.18;33.13;;;;;;;;;;1034402;28;20034;-77
2022/12/23 01:37:53;;;;;;;78.65;33.10;;;;;;;;;;1034805;28;20017;-76
2022/12/23 01:38:23;;;;;;;78.32;34.45;;;;;;;;;;1035038;28;20697;-76
2022/12/23 01:38:55;;;;;;;83.70;36.33;;;;;;;;;;1035244;28;20506;-77
2022/12/23 01:39:29;;;;;;;93.35;34.08;;;;;;;;;;1034534;28;20018;-79
2022/12/23 01:39:59;;;;;;;88.20;34.47;;;;;;;;;;1035024;28;20026;-78
2022/12/23 01:40:33;;;;;;;99.05;37.35;;;;;;;;;;1030814;28;20022;-77
2022/12/23 01:41:04;;;;;;;75.85;33.72;;;;;;;;;;1028984;28;20085;-78
2022/12/23 01:42:42;;;;;;;62.35;25.75;;;;;;;;;;1033450;28;20045;-78
2022/12/23 01:43:16;;;;;;;59.38;23.65;;;;;;;;;;1035375;28;20072;-78
2022/12/23 01:43:49;;;;;;;58.63;23.45;;;;;;;;;;1029849;28;20026;-78
2022/12/23 01:44:38;;;;;;;58.75;25.50;;;;;;;;;;1033411;28;20030;-78
2022/12/23 01:45:16;;;;;;;72.32;26.33;;;;;;;;;;1034124;28;20034;-79
2022/12/23 01:45:47;;;;;;;77.32;32.13;;;;;;;;;;1033914;28;20478;-77
2022/12/23 01:46:18;;;;;;;72.32;30.63;;;;;;;;;;1036165;28;20041;-78
2022/12/23 01:46:48;;;;;;;87.82;33.75;;;;;;;;;;1036006;28;20061;-77
2022/12/23 01:47:39;;;;;;;83.93;31.60;;;;;;;;;;1035779;28;20021;-77
2022/12/23 01:48:21;;;;;;;89.32;32.92;;;;;;;;;;1034658;28;20026;-78
2022/12/23 01:48:52;;;;;;;90.60;33.50;;;;;;;;;;1036050;28;20026;-79
2022/12/23 01:49:23;;;;;;;67.65;26.55;;;;;;;;;;1036023;28;20029;-79
2022/12/23 01:49:56;;;;;;;47.80;22.52;;;;;;;;;;1036832;28;20056;-78
2022/12/23 01:50:29;;;;;;;49.90;20.15;;;;;;;;;;1036648;28;20036;-77
2022/12/23 01:51:10;;;;;;;41.15;17.65;;;;;;;;;;1036569;28;20022;-79
2022/12/23 01:51:41;;;;;;;40.83;18.60;;;;;;;;;;1036463;28;20379;-78
2022/12/23 01:52:12;;;;;;;49.72;20.48;;;;;;;;;;1032070;28;20076;-79
2022/12/23 01:53:25;;;;;;;33.70;17.15;;;;;;;;;;1003049;26;20500;-78
2022/12/23 01:53:59;;;;;;;40.58;15.40;;;;;;;;;;1039874;28;20048;-78
2022/12/23 01:54:30;;;;;;;33.03;15.88;;;;;;;;;;1040728;28;20030;-78
2022/12/23 01:55:01;;;;;;;48.35;21.13;;;;;;;;;;1033741;28;20118;-76
2022/12/23 01:55:33;;;;;;;48.08;19.15;;;;;;;;;;1036414;28;20034;-79
2022/12/23 01:56:04;;;;;;;44.85;20.40;;;;;;;;;;1038812;28;20021;-78
2022/12/23 01:56:38;;;;;;;48.47;20.90;;;;;;;;;;1040859;28;20060;-79
2022/12/23 01:57:10;;;;;;;42.75;17.98;;;;;;;;;;1037877;28;20025;-78
2022/12/23 01:57:44;;;;;;;43.63;19.10;;;;;;;;;;1036532;28;20332;-78
2022/12/23 01:58:26;;;;;;;40.50;17.45;;;;;;;;;;1033643;28;20053;-80
2022/12/23 01:59:01;;;;;;;41.67;16.40;;;;;;;;;;1038654;28;20022;-78
2022/12/23 02:03:41;;;;;;;43.97;16.40;;;;;;;;;;1038958;28;20036;-80
2022/12/23 02:04:16;;;;;;;36.33;16.02;;;;;;;;;;1039211;28;20260;-80
2022/12/23 02:04:48;;;;;;;45.50;17.90;;;;;;;;;;1035819;28;20402;-78
2022/12/23 02:05:20;;;;;;;44.95;18.23;;;;;;;;;;1032785;28;20069;-79
2022/12/23 02:05:52;;;;;;;32.80;15.43;;;;;;;;;;1033342;28;20112;-79
2022/12/23 02:09:17;;;;;;;30.23;15.30;;;;;;;;;;1039044;28;20026;-78
2022/12/23 02:09:48;;;;;;;35.53;17.40;;;;;;;;;;1039494;28;20480;-81
2022/12/23 02:10:19;;;;;;;37.45;16.58;;;;;;;;;;1039901;28;20125;-81
2022/12/23 02:10:50;;;;;;;36.55;14.48;;;;;;;;;;1041092;28;20060;-81
2022/12/23 02:11:33;;;;;;;43.70;20.13;;;;;;;;;;1040522;28;20028;-81
2022/12/23 02:16:15;;;;;;;33.72;14.43;;;;;;;;;;1037408;28;19939;-82
2022/12/23 02:16:16;;;;;;;;;;;;;;;;;;1093155;22;20107;-80
2022/12/23 02:16:50;;;;;;;35.10;16.08;;;;;;;;;;1158901;22;19924;-80
2022/12/23 02:18:01;;;;;;;;;;;;;;;;;;1139470;22;20599;-81
2022/12/23 02:19:28;;;;;;;39.92;14.23;;;;;;;;;;1264871;22;20062;-80
2022/12/23 02:20:08;;;;;;;54.53;18.70;;;;;;;;;;1082457;22;20037;-81
2022/12/23 02:21:32;;;;;;;27.23;13.30;;;;;;;;;;1049404;22;20050;-80
2022/12/23 02:22:03;;;;;;;36.92;15.57;;;;;;;;;;1038461;28;20081;-78
2022/12/23 02:22:44;;;;;;;40.08;14.77;;;;;;;;;;1038909;28;20041;-79
2022/12/23 02:23:25;;;;;;;45.95;16.48;;;;;;;;;;1040801;28;20030;-82
2022/12/23 02:25:41;;;;;;;40.38;17.85;;;;;;;;;;1073393;22;20407;-79
2022/12/23 02:27:37;;;;;;;;;;;;;;;;;;1106367;22;19929;-78
2022/12/23 02:29:27;;;;;;;;;;;;;;;;;;1075743;22;20049;-80
2022/12/23 02:32:23;;;;;;;35.80;16.33;;;;;;;;;;1063175;22;20134;-79
2022/12/23 02:33:34;;;;;;;41.47;17.65;;;;;;;;;;1057775;22;20065;-78
2022/12/23 02:34:16;;;;;;;54.05;20.27;;;;;;;;;;1035517;28;20113;-77
2022/12/23 02:34:53;;;;;;;40.45;18.15;;;;;;;;;;1039226;28;20044;-78
2022/12/23 02:35:29;;;;;;;50.33;19.83;;;;;;;;;;1034724;28;20026;-79
2022/12/23 02:36:16;;;;;;;50.03;18.90;;;;;;;;;;1034623;28;20668;-81
2022/12/23 02:37:06;;;;;;;41.58;17.40;;;;;;;;;;1036606;28;20033;-79
2022/12/23 02:37:56;;;;;;;36.78;18.00;;;;;;;;;;1035189;28;20102;-78
2022/12/23 02:38:39;;;;;;;40.72;16.85;;;;;;;;;;1035226;28;20052;-78
2022/12/23 02:39:21;;;;;;;48.67;18.10;;;;;;;;;;1029107;28;20098;-76
2022/12/23 02:39:54;;;;;;;36.38;16.40;;;;;;;;;;1034261;28;20443;-77
2022/12/23 02:40:31;;;;;;;35.95;17.15;;;;;;;;;;1029216;28;20078;-76
2022/12/23 02:41:01;;;;;;;34.47;16.05;;;;;;;;;;1031266;28;20069;-77
2022/12/23 02:41:39;;;;;;;53.13;18.55;;;;;;;;;;1032397;28;20077;-75
2022/12/23 02:42:14;;;;;;;30.48;12.23;;;;;;;;;;1031865;28;20023;-77
2022/12/23 02:42:56;;;;;;;43.55;15.45;;;;;;;;;;1032302;28;20070;-77
2022/12/23 02:43:44;;;;;;;37.70;17.33;;;;;;;;;;1032055;28;20038;-76
2022/12/23 02:44:38;;;;;;;44.70;17.70;;;;;;;;;;1031885;28;20022;-77
2022/12/23 02:45:12;;;;;;;45.13;16.23;;;;;;;;;;1030133;28;20027;-77
2022/12/23 02:45:45;;;;;;;41.72;21.73;;;;;;;;;;1030618;28;20030;-76
2022/12/23 02:46:18;;;;;;;45.38;18.55;;;;;;;;;;1033372;28;20018;-78
2022/12/23 02:46:55;;;;;;;54.65;17.73;;;;;;;;;;1033971;28;20176;-76
2022/12/23 02:47:36;;;;;;;47.58;18.27;;;;;;;;;;1035838;28;20025;-75
2022/12/23 02:48:22;;;;;;;55.15;18.63;;;;;;;;;;1035277;28;20088;-77
2022/12/23 02:48:59;;;;;;;51.90;19.70;;;;;;;;;;1032361;28;20072;-77
2022/12/23 02:49:35;;;;;;;37.47;16.67;;;;;;;;;;1038522;28;20021;-77
2022/12/23 02:50:10;;;;;;;36.53;17.38;;;;;;;;;;1038565;28;20025;-78
2022/12/23 02:50:42;;;;;;;58.45;19.63;;;;;;;;;;1040731;28;20521;-77
2022/12/23 02:51:14;;;;;;;43.97;18.15;;;;;;;;;;1034951;28;20115;-77
2022/12/23 02:51:47;;;;;;;42.83;18.30;;;;;;;;;;1035334;28;20025;-77
2022/12/23 02:52:19;;;;;;;39.38;18.08;;;;;;;;;;1031670;28;20811;-77
2022/12/23 02:52:51;;;;;;;53.38;20.15;;;;;;;;;;1030315;28;20030;-77
2022/12/23 02:53:34;;;;;;;51.30;21.30;;;;;;;;;;1032173;28;20026;-77
2022/12/23 02:54:06;;;;;;;64.63;24.45;;;;;;;;;;1029625;28;20868;-77
2022/12/23 02:54:44;;;;;;;59.75;23.90;;;;;;;;;;1031196;28;20350;-77
2022/12/23 02:55:27;;;;;;;58.97;22.08;;;;;;;;;;1033488;28;20034;-76
2022/12/23 02:56:00;;;;;;;43.88;20.17;;;;;;;;;;1031490;28;20028;-76
2022/12/23 02:56:31;;;;;;;53.00;20.67;;;;;;;;;;1033761;28;20093;-76
2022/12/23 02:57:03;;;;;;;48.33;20.85;;;;;;;;;;1034133;28;20469;-77
2022/12/23 02:57:40;;;;;;;47.08;20.23;;;;;;;;;;1034520;28;20363;-78
2022/12/23 02:58:14;;;;;;;52.90;19.73;;;;;;;;;;1033119;28;20490;-77
2022/12/23 02:58:53;;;;;;;70.57;20.27;;;;;;;;;;1032374;28;20141;-77
2022/12/23 02:59:26;;;;;;;55.08;20.80;;;;;;;;;;1033297;28;20319;-77
2022/12/23 02:59:57;;;;;;;62.25;22.48;;;;;;;;;;1034093;28;20034;-77
2022/12/23 03:00:29;;;;;;;61.72;19.92;;;;;;;;;;1045651;22;20049;-76
2022/12/23 03:01:00;;;;;;;53.78;20.77;;;;;;;;;;1039504;28;20350;-78
2022/12/23 03:01:32;;;;;;;50.38;20.10;;;;;;;;;;1037812;28;20029;-78
2022/12/23 03:02:02;;;;;;;72.50;21.42;;;;;;;;;;1036793;28;20052;-80
2022/12/23 03:03:03;;;;;;;55.57;21.13;;;;;;;;;;1095357;22;20592;-78
2022/12/23 03:03:35;;;;;;;57.15;19.75;;;;;;;;;;1047918;22;20037;-79
2022/12/23 03:04:06;;;;;;;67.80;21.63;;;;;;;;;;1037864;28;20033;-78
2022/12/23 03:04:37;;;;;;;54.58;23.85;;;;;;;;;;1037226;28;20053;-79
2022/12/23 03:05:23;;;;;;;60.20;22.45;;;;;;;;;;1036596;28;20473;-79
2022/12/23 03:05:54;;;;;;;64.07;21.08;;;;;;;;;;1036562;28;20028;-78
2022/12/23 03:06:27;;;;;;;64.78;22.48;;;;;;;;;;1039728;28;20446;-79
2022/12/23 03:07:34;;;;;;;59.08;23.27;;;;;;;;;;1091269;22;20089;-79
2022/12/23 03:08:06;;;;;;;59.35;21.98;;;;;;;;;;1032877;28;20121;-81
2022/12/23 03:08:41;;;;;;;58.42;23.40;;;;;;;;;;1089234;22;20023;-81
2022/12/23 03:09:24;;;;;;;55.83;21.10;;;;;;;;;;1045404;22;21273;-77
2022/12/23 03:10:45;;;;;;;48.35;21.85;;;;;;;;;;1133148;22;20020;-81
2022/12/23 03:12:04;;;;;;;61.85;21.48;;;;;;;;;;1036104;28;20106;-78
2022/12/23 03:12:52;;;;;;;49.10;21.50;;;;;;;;;;1043616;23;20018;-79
2022/12/23 03:13:25;;;;;;;66.93;24.33;;;;;;;;;;1050885;22;20139;-78
2022/12/23 03:14:04;;;;;;;50.17;22.00;;;;;;;;;;1051070;22;20145;-78
2022/12/23 03:15:04;;;;;;;50.38;21.63;;;;;;;;;;1052884;23;20040;-77
2022/12/23 03:16:12;;;;;;;52.25;22.27;;;;;;;;;;1085014;22;20391;-79
2022/12/23 03:16:52;;;;;;;57.25;22.13;;;;;;;;;;1038859;28;20038;-78
2022/12/23 03:17:35;;;;;;;62.08;22.65;;;;;;;;;;1041446;28;20469;-78
2022/12/23 03:18:11;;;;;;;53.15;20.95;;;;;;;;;;1039841;28;20017;-81
2022/12/23 03:18:41;;;;;;;51.97;23.20;;;;;;;;;;1039464;28;20473;-78
2022/12/23 03:19:27;;;;;;;61.47;22.33;;;;;;;;;;1036588;28;20056;-79
2022/12/23 03:20:16;;;;;;;67.88;22.20;;;;;;;;;;1030828;28;20761;-78
2022/12/23 03:20:58;;;;;;;56.70;21.38;;;;;;;;;;1035998;28;20056;-81
2022/12/23 03:21:34;;;;;;;68.80;20.77;;;;;;;;;;1051549;23;20136;-81
2022/12/23 03:22:36;;;;;;;72.00;27.10;;;;;;;;;;1050928;22;21137;-80
2022/12/23 03:23:15;;;;;;;59.53;22.83;;;;;;;;;;1039358;28;20029;-80
2022/12/23 03:23:50;;;;;;;53.33;23.40;;;;;;;;;;1087688;22;20019;-78
2022/12/23 03:24:28;;;;;;;61.03;24.48;;;;;;;;;;1041099;28;20128;-79
2022/12/23 03:25:04;;;;;;;83.85;24.77;;;;;;;;;;1037945;28;20029;-78
2022/12/23 03:25:39;;;;;;;59.25;25.80;;;;;;;;;;1037612;28;20033;-79
2022/12/23 03:26:13;;;;;;;57.72;26.60;;;;;;;;;;1037065;28;20491;-80
2022/12/23 03:26:48;;;;;;;61.00;24.02;;;;;;;;;;1039251;28;20455;-79
2022/12/23 03:27:25;;;;;;;63.03;24.42;;;;;;;;;;1039398;28;20532;-80
2022/12/23 03:28:03;;;;;;;64.22;22.77;;;;;;;;;;1038125;28;20122;-78
2022/12/23 03:28:56;;;;;;;69.07;26.38;;;;;;;;;;1034953;28;20039;-78
2022/12/23 03:29:35;;;;;;;56.08;23.42;;;;;;;;;;1034592;28;20519;-76
2022/12/23 03:30:07;;;;;;;74.47;24.77;;;;;;;;;;1031966;28;20450;-78
2022/12/23 03:30:39;;;;;;;68.53;25.10;;;;;;;;;;1038289;28;20022;-78
2022/12/23 03:31:12;;;;;;;71.60;24.67;;;;;;;;;;1036015;28;20076;-81
2022/12/23 03:31:44;;;;;;;75.38;26.83;;;;;;;;;;1088058;23;20016;-79
2022/12/23 03:32:16;;;;;;;66.95;24.85;;;;;;;;;;1033458;28;20033;-79
2022/12/23 03:33:06;;;;;;;62.58;26.27;;;;;;;;;;1033238;28;20026;-79
2022/12/23 03:33:39;;;;;;;68.43;25.73;;;;;;;;;;1037856;28;20055;-80
2022/12/23 03:34:19;;;;;;;58.35;24.40;;;;;;;;;;1036500;28;20629;-79
2022/12/23 03:34:52;;;;;;;62.05;23.55;;;;;;;;;;1037513;28;20029;-80
2022/12/23 03:35:26;;;;;;;62.28;26.42;;;;;;;;;;1030020;28;20498;-80
2022/12/23 03:36:00;;;;;;;64.65;23.85;;;;;;;;;;1031203;28;20026;-80
2022/12/23 03:36:59;;;;;;;71.68;28.73;;;;;;;;;;1031381;28;20089;-80
2022/12/23 03:37:32;;;;;;;59.33;22.83;;;;;;;;;;1013438;29;20095;-81
2022/12/23 03:38:03;;;;;;;62.65;24.35;;;;;;;;;;1030520;28;20022;-81
2022/12/23 03:38:36;;;;;;;68.88;22.85;;;;;;;;;;1033794;28;20018;-80
2022/12/23 03:39:09;;;;;;;53.08;23.40;;;;;;;;;;1028892;28;20022;-79
2022/12/23 03:39:53;;;;;;;70.50;24.85;;;;;;;;;;1030945;28;20673;-80
2022/12/23 03:40:25;;;;;;;57.53;20.40;;;;;;;;;;1033639;28;20025;-80
2022/12/23 03:41:01;;;;;;;53.58;21.98;;;;;;;;;;1036038;28;20076;-79
2022/12/23 03:42:12;;;;;;;;;;;;;;;;;;1101612;22;20048;-79
2022/12/23 03:42:45;;;;;;;63.65;23.02;;;;;;;;;;1041944;28;20018;-79
2022/12/23 03:43:22;;;;;;;62.17;23.67;;;;;;;;;;1041323;28;20028;-79
2022/12/23 03:43:55;;;;;;;63.35;23.75;;;;;;;;;;1041584;28;20055;-78
2022/12/23 03:44:30;;;;;;;60.35;23.85;;;;;;;;;;1037120;28;20025;-79
2022/12/23 03:45:04;;;;;;;77.18;26.95;;;;;;;;;;1038802;28;20039;-80
2022/12/23 03:45:38;;;;;;;65.38;24.95;;;;;;;;;;1034059;28;20556;-80
2022/12/23 03:46:14;;;;;;;62.00;26.35;;;;;;;;;;1035795;28;20069;-79
2022/12/23 03:46:48;;;;;;;70.85;28.85;;;;;;;;;;1036537;28;20022;-79
2022/12/23 03:47:24;;;;;;;68.95;24.55;;;;;;;;;;1035502;28;20366;-78
2022/12/23 03:48:01;;;;;;;81.82;26.77;;;;;;;;;;1032847;28;20026;-79
2022/12/23 03:48:35;;;;;;;68.63;27.23;;;;;;;;;;1033660;28;20022;-77
2022/12/23 03:49:12;;;;;;;83.47;26.17;;;;;;;;;;1038397;28;20029;-78
2022/12/23 03:50:06;;;;;;;70.45;26.65;;;;;;;;;;1041700;28;20017;-78
2022/12/23 03:50:38;;;;;;;70.72;26.92;;;;;;;;;;1102685;22;21966;-79
2022/12/23 03:51:11;;;;;;;63.00;25.98;;;;;;;;;;1033766;28;20040;-80
2022/12/23 03:51:48;;;;;;;72.13;29.45;;;;;;;;;;1035930;28;20056;-79
2022/12/23 03:52:48;;;;;;;56.70;25.63;;;;;;;;;;1179987;22;20027;-80
2022/12/23 03:54:06;;;;;;;87.28;29.35;;;;;;;;;;1040619;26;20149;-82
2022/12/23 03:54:50;;;;;;;79.40;30.45;;;;;;;;;;1117283;22;20790;-81
2022/12/23 03:55:55;;;;;;;73.25;29.90;;;;;;;;;;1081059;22;20345;-79
2022/12/23 03:57:02;;;;;;;72.70;29.00;;;;;;;;;;1062207;22;20506;-78
2022/12/23 03:58:13;;;;;;;;;;;;;;;;;;1144209;22;19971;-81
2022/12/23 03:58:44;;;;;;;59.45;26.02;;;;;;;;;;1042417;28;19924;-79
2022/12/23 03:59:53;;;;;;;72.50;28.88;;;;;;;;;;1055047;22;21377;-79
2022/12/23 04:00:25;;;;;;;73.53;28.45;;;;;;;;;;1034448;28;20097;-80
2022/12/23 04:01:04;;;;;;;77.30;27.98;;;;;;;;;;1033909;28;20521;-78
2022/12/23 04:01:38;;;;;;;74.65;28.48;;;;;;;;;;1035252;28;20587;-79
2022/12/23 04:03:08;;;;;;;77.38;30.90;;;;;;;;;;1047427;22;20045;-78
2022/12/23 04:03:48;;;;;;;80.68;29.02;;;;;;;;;;1024440;28;20772;-79